»·PEaware :: N4A KMRY-KFAT

N4A :: KMRY-KFAT

FLIGHT INFORMATION

Flight Status: Arrived
Operator: Privately registered:
United States
More flights under this callsign
Pilot: Alec D. (17934)
Aircraft: CESSNA 550 CITATION 2/S2/BRAVO
(C550)
More flights by this aircraft type
Origin: KMRY Monterey Peninsula
United States
Destination: KFAT Fresno Yosemite Intl
United States
More flights between these airports :: More routes between these airports
Route: SNS PXN CZQ
File this flight plan on PilotEdge
Remarks:
Altitude:
(Current/Filed)
9,000ft
Speed:
(Current/Filed)
315kts
Departed: 28-Sep-18 11:26 AM
Arrived: 28-Sep-18 11:56 AM
Distance/Time
Traveled:
102nm/0:30
Distance/Time
To Go:
Arrived

Flight Plot

Page will automatically refresh every two minutes.


Map Options




Map Legend


Flown Route
Filed Route
Departure Airport
Arrival Airport
Navaid (VOR, NDB)
Fix

Horizontal Profiles

Position Reports

Time Latitude Longitude Heading Altitude Ground
Speed
28-Sep-18 10:56 36.588629 -121.854511 343 260ft 0kts
28-Sep-18 10:57 36.588629 -121.854511 343 260ft 0kts
28-Sep-18 10:58 36.588629 -121.854511 343 260ft 0kts
28-Sep-18 10:59 36.588629 -121.854511 343 260ft 0kts
28-Sep-18 11:00 36.588629 -121.854511 343 260ft 0kts
28-Sep-18 11:01 36.588629 -121.854511 343 260ft 0kts
28-Sep-18 11:02 36.588629 -121.854511 343 260ft 0kts
28-Sep-18 11:03 36.588629 -121.854511 343 260ft 0kts
28-Sep-18 11:04 36.588629 -121.854511 343 260ft 0kts
28-Sep-18 11:05 36.588629 -121.854511 343 260ft 0kts
28-Sep-18 11:06 36.588629 -121.854511 343 260ft 0kts
28-Sep-18 11:07 36.588629 -121.854511 343 260ft 0kts
28-Sep-18 11:08 36.588629 -121.854511 343 260ft 0kts
28-Sep-18 11:09 36.588629 -121.854511 343 260ft 0kts
28-Sep-18 11:10 36.588634 -121.854513 343 260ft 0kts
28-Sep-18 11:11 36.588640 -121.854515 343 260ft 0kts
28-Sep-18 11:12 36.588646 -121.854517 343 260ft 0kts
28-Sep-18 11:13 36.588652 -121.854519 343 260ft 0kts
28-Sep-18 11:14 36.588658 -121.854522 343 260ft 0kts
28-Sep-18 11:15 36.588664 -121.854524 343 260ft 0kts
28-Sep-18 11:16 36.588670 -121.854526 343 260ft 0kts
28-Sep-18 11:17 36.588676 -121.854528 343 260ft 0kts
28-Sep-18 11:18 36.588682 -121.854530 343 260ft 0kts
28-Sep-18 11:19 36.588688 -121.854533 343 260ft 0kts
28-Sep-18 11:20 36.589025 -121.853539 98 260ft 6kts
28-Sep-18 11:21 36.587551 -121.849192 113 260ft 20kts
28-Sep-18 11:22 36.585628 -121.843625 113 260ft 17kts
28-Sep-18 11:23 36.583390 -121.837134 112 260ft 13kts
28-Sep-18 11:24 36.582692 -121.834399 60 260ft 0kts
28-Sep-18 11:25 36.582696 -121.834391 60 260ft 0kts
28-Sep-18 11:26 36.582699 -121.834384 60 260ft 0kts
28-Sep-18 11:27 36.583601 -121.834302 292 260ft 23kts
28-Sep-18 11:28 36.594488 -121.866557 295 1374ft 141kts
28-Sep-18 11:29 36.633895 -121.893516 342 3668ft 188kts
28-Sep-18 11:30 36.689091 -121.907782 23 6061ft 219kts
28-Sep-18 11:31 36.709471 -121.842429 112 8545ft 212kts
28-Sep-18 11:32 36.692769 -121.758875 105 8998ft 282kts
28-Sep-18 11:33 36.674191 -121.657837 106 8979ft 309kts
28-Sep-18 11:34 36.667460 -121.552087 87 8985ft 311kts
28-Sep-18 11:35 36.674258 -121.444572 88 8977ft 311kts
28-Sep-18 11:36 36.681121 -121.337302 88 8973ft 311kts
28-Sep-18 11:37 36.687927 -121.229816 87 8969ft 310kts
28-Sep-18 11:38 36.694620 -121.122614 87 8964ft 311kts
28-Sep-18 11:39 36.701220 -121.015442 87 9039ft 308kts
28-Sep-18 11:40 36.707705 -120.908325 87 9056ft 310kts
28-Sep-18 11:41 36.714105 -120.801216 87 9046ft 311kts
28-Sep-18 11:42 36.730491 -120.694713 79 9034ft 313kts
28-Sep-18 11:43 36.749366 -120.588901 79 9022ft 313kts
28-Sep-18 11:44 36.768167 -120.482961 79 8994ft 313kts
28-Sep-18 11:45 36.786913 -120.376748 79 8984ft 313kts
28-Sep-18 11:46 36.805506 -120.270824 79 8987ft 312kts
28-Sep-18 11:47 36.809923 -120.165751 107 8424ft 296kts
28-Sep-18 11:48 36.782401 -120.072470 112 6624ft 279kts
28-Sep-18 11:49 36.754790 -119.984623 112 5065ft 258kts
28-Sep-18 11:50 36.727206 -119.903763 119 3416ft 258kts
28-Sep-18 11:51 36.694224 -119.834264 121 2956ft 201kts
28-Sep-18 11:52 36.668291 -119.784022 121 2682ft 148kts
28-Sep-18 11:53 36.658187 -119.738026 62 1754ft 135kts
28-Sep-18 11:54 36.690990 -119.713993 27 1647ft 148kts
28-Sep-18 11:55 36.726048 -119.686358 21 1661ft 137kts
28-Sep-18 11:56 36.760354 -119.688091 309 699ft 133kts
28-Sep-18 11:57 36.776899 -119.717638 303 339ft 42kts
28-Sep-18 11:58 36.778864 -119.723550 258 339ft 13kts
28-Sep-18 11:59 36.776643 -119.726351 303 339ft 11kts
28-Sep-18 12:00 36.778841 -119.730395 305 339ft 12kts
28-Sep-18 12:01 36.778976 -119.730507 124 339ft 0kts
28-Sep-18 12:02 36.778976 -119.730506 124 339ft 0kts
28-Sep-18 12:03 36.778976 -119.730506 124 339ft 0kts
28-Sep-18 12:04 36.778976 -119.730506 124 339ft 0kts
28-Sep-18 12:05 36.778976 -119.730506 124 339ft 0kts
28-Sep-18 12:06 36.778976 -119.730506 124 339ft 0kts
28-Sep-18 12:07 36.778976 -119.730506 124 339ft 0kts
28-Sep-18 12:08 36.778976 -119.730506 124 339ft 0kts
28-Sep-18 12:09 36.778976 -119.730506 124 339ft 0kts
28-Sep-18 12:10 36.778976 -119.730506 124 339ft 0kts
28-Sep-18 12:11 36.778976 -119.730506 124 339ft 0kts
28-Sep-18 12:12 36.778976 -119.730506 124 339ft 0kts

Navigation Log

Ident Type
Flight plan parsing failed, navigation log unavailable